createdAt,value
2023-05-16T00:01:16.555Z,7.57
2023-05-16T00:03:43.204Z,7.33
2023-05-16T00:06:09.577Z,7.33
2023-05-16T00:08:35.860Z,7.80
2023-05-16T00:11:02.309Z,7.07
2023-05-16T00:13:29.661Z,7.03
2023-05-16T00:15:56.181Z,6.87
2023-05-16T00:18:22.822Z,7.20
2023-05-16T00:20:49.889Z,6.70
2023-05-16T00:23:17.049Z,6.00
2023-05-16T00:25:43.397Z,6.17
2023-05-16T00:28:09.716Z,6.17
2023-05-16T00:30:36.259Z,5.80
2023-05-16T00:33:02.620Z,5.90
2023-05-16T00:35:28.984Z,5.47
2023-05-16T00:37:55.867Z,6.17
2023-05-16T00:40:22.130Z,5.97
2023-05-16T00:42:48.428Z,5.90
2023-05-16T00:45:14.710Z,5.43
2023-05-16T00:47:41.188Z,5.40
2023-05-16T00:50:07.673Z,5.60
2023-05-16T00:52:34.117Z,5.00
2023-05-16T00:55:01.096Z,5.27
2023-05-16T00:57:27.551Z,4.97
2023-05-16T00:59:54.507Z,4.93
2023-05-16T01:02:20.861Z,4.43
2023-05-16T01:04:48.351Z,4.30
2023-05-16T01:07:14.756Z,4.10
2023-05-16T01:09:41.345Z,4.23
2023-05-16T01:12:12.170Z,4.70
2023-05-16T01:14:38.466Z,4.80
2023-05-16T01:17:07.803Z,5.70
2023-05-16T01:19:52.952Z,6.10
2023-05-16T01:22:31.156Z,6.20
2023-05-16T01:25:07.778Z,5.97
2023-05-16T01:27:35.519Z,5.57
2023-05-16T01:30:10.963Z,5.37
2023-05-16T01:32:37.328Z,5.10
2023-05-16T01:35:03.821Z,6.10
2023-05-16T01:37:35.513Z,6.47
2023-05-16T01:40:07.688Z,6.80
2023-05-16T01:42:36.985Z,7.17
2023-05-16T01:45:08.854Z,6.97
2023-05-16T01:47:36.354Z,7.17
2023-05-16T01:50:09.190Z,7.33
2023-05-16T01:52:40.778Z,7.40
2023-05-16T01:55:10.323Z,8.07
2023-05-16T01:57:36.616Z,7.07
2023-05-16T02:00:02.967Z,6.73
2023-05-16T02:02:29.317Z,5.63
2023-05-16T02:04:55.664Z,4.40
2023-05-16T02:07:22.372Z,3.60
2023-05-16T02:09:48.699Z,3.93
2023-05-16T02:12:15.002Z,3.30
2023-05-16T02:14:41.410Z,3.40
2023-05-16T02:17:07.792Z,3.50
2023-05-16T02:19:34.146Z,3.93
2023-05-16T02:22:00.413Z,3.97
2023-05-16T02:24:26.628Z,4.27
2023-05-16T02:26:52.882Z,4.93
2023-05-16T02:29:19.107Z,5.70
2023-05-16T02:31:48.184Z,5.77
2023-05-16T02:34:15.290Z,5.90
2023-05-16T02:36:41.574Z,6.40
2023-05-16T02:39:09.918Z,6.30
2023-05-16T02:41:36.165Z,7.37
2023-05-16T02:44:02.699Z,6.90
2023-05-16T02:46:34.054Z,6.73
2023-05-16T02:49:00.550Z,6.63
2023-05-16T02:51:27.799Z,6.47
2023-05-16T02:53:56.829Z,7.03
2023-05-16T02:56:23.106Z,6.93
2023-05-16T02:58:49.953Z,6.87
2023-05-16T03:01:16.730Z,7.30
2023-05-16T03:03:43.162Z,6.27
2023-05-16T03:06:09.659Z,6.80
2023-05-16T03:08:35.972Z,6.17
2023-05-16T03:11:02.275Z,6.27
2023-05-16T03:13:30.014Z,6.47
2023-05-16T03:15:56.393Z,5.70
2023-05-16T03:18:22.718Z,6.30
2023-05-16T03:20:48.978Z,6.57
2023-05-16T03:23:15.323Z,6.10
2023-05-16T03:25:43.131Z,5.67
2023-05-16T03:28:09.707Z,5.50
2023-05-16T03:30:36.059Z,6.00
2023-05-16T03:33:03.801Z,6.10
2023-05-16T03:35:33.149Z,6.07
2023-05-16T03:37:59.438Z,6.23
2023-05-16T03:40:25.950Z,6.97
2023-05-16T03:42:52.238Z,5.97
2023-05-16T03:45:18.513Z,6.50
2023-05-16T03:47:44.931Z,6.80
2023-05-16T03:50:11.561Z,6.00
2023-05-16T03:52:37.965Z,6.70
2023-05-16T03:55:05.030Z,6.00
2023-05-16T03:57:32.434Z,6.30
2023-05-16T03:59:59.165Z,6.53
2023-05-16T04:02:25.615Z,6.77
2023-05-16T04:04:51.955Z,6.60
2023-05-16T04:07:18.227Z,6.57
2023-05-16T04:09:44.630Z,6.50
2023-05-16T04:12:11.016Z,6.53
2023-05-16T04:14:38.158Z,6.13
2023-05-16T04:17:04.618Z,6.50
2023-05-16T04:19:31.121Z,6.20
2023-05-16T04:21:57.440Z,5.60
2023-05-16T04:24:26.499Z,6.60
2023-05-16T04:26:52.870Z,5.50
2023-05-16T04:29:19.616Z,6.40
2023-05-16T04:31:46.065Z,7.13
2023-05-16T04:34:13.137Z,6.23
2023-05-16T04:36:39.498Z,6.00
2023-05-16T04:39:06.275Z,6.03
2023-05-16T04:41:33.660Z,5.57
2023-05-16T04:44:01.692Z,5.77
2023-05-16T04:46:28.003Z,5.47
2023-05-16T04:48:54.324Z,5.37
2023-05-16T04:51:20.595Z,5.37
2023-05-16T04:53:46.845Z,5.43
2023-05-16T04:56:13.311Z,5.07
2023-05-16T04:58:41.062Z,5.63
2023-05-16T05:01:09.185Z,4.70
2023-05-16T05:03:36.000Z,4.90
2023-05-16T05:06:02.290Z,4.80
2023-05-16T05:08:28.572Z,4.57
2023-05-16T05:10:55.885Z,4.27
2023-05-16T05:13:22.209Z,4.80
2023-05-16T05:15:50.300Z,4.43
2023-05-16T05:18:16.692Z,4.10
2023-05-16T05:20:43.455Z,3.97
2023-05-16T05:23:09.733Z,4.70
2023-05-16T05:25:37.783Z,4.33
2023-05-16T05:28:04.341Z,4.13
2023-05-16T05:30:30.660Z,3.90
2023-05-16T05:32:57.013Z,3.93
2023-05-16T05:35:23.362Z,3.70
2023-05-16T05:37:49.643Z,3.23
2023-05-16T05:40:16.184Z,4.20
2023-05-16T05:42:44.186Z,3.40
2023-05-16T05:45:12.439Z,4.07
2023-05-16T05:47:38.996Z,2.70
2023-05-16T05:50:05.953Z,3.57
2023-05-16T05:52:32.355Z,3.10
2023-05-16T05:54:59.423Z,2.53
2023-05-16T05:57:26.030Z,2.90
2023-05-16T05:59:52.274Z,2.70
2023-05-16T06:02:18.735Z,3.17
2023-05-16T06:04:45.252Z,3.20
2023-05-16T06:07:11.663Z,3.23
2023-05-16T06:09:37.894Z,6.67
2023-05-16T06:12:04.539Z,11.87
2023-05-16T06:14:30.845Z,3.80
2023-05-16T06:16:57.311Z,3.00
2023-05-16T06:19:23.750Z,2.80
2023-05-16T06:21:50.525Z,3.00
2023-05-16T06:24:16.924Z,2.30
2023-05-16T06:26:46.068Z,2.20
2023-05-16T06:29:12.346Z,2.70
2023-05-16T06:31:38.651Z,2.60
2023-05-16T06:34:04.950Z,2.63
2023-05-16T06:36:31.350Z,3.13
2023-05-16T06:38:57.608Z,3.37
2023-05-16T06:41:23.986Z,3.00
2023-05-16T06:43:50.371Z,9.97
2023-05-16T06:46:16.707Z,8.07
2023-05-16T06:48:42.982Z,2.93
2023-05-16T06:51:09.846Z,3.70
2023-05-16T06:53:36.634Z,3.50
2023-05-16T06:56:03.109Z,3.50
2023-05-16T06:58:29.410Z,3.73
2023-05-16T07:00:55.804Z,5.40
2023-05-16T07:03:22.463Z,4.37
2023-05-16T07:05:51.532Z,4.17
2023-05-16T07:08:17.834Z,3.90
2023-05-16T07:10:44.557Z,4.37
2023-05-16T07:13:10.956Z,4.27
2023-05-16T07:15:37.276Z,4.33
2023-05-16T07:18:03.809Z,4.33
2023-05-16T07:20:30.269Z,4.33
2023-05-16T07:22:57.631Z,4.70
2023-05-16T07:25:24.592Z,4.07
2023-05-16T07:27:51.026Z,4.27
2023-05-16T07:30:17.749Z,4.30
2023-05-16T07:32:44.129Z,3.73
2023-05-16T07:35:10.850Z,3.40
2023-05-16T07:37:38.326Z,15.50
2023-05-16T07:40:04.994Z,3.60
2023-05-16T07:42:31.593Z,2.70
2023-05-16T07:44:58.004Z,2.60
2023-05-16T07:47:24.421Z,2.60
2023-05-16T07:49:50.923Z,2.77
2023-05-16T07:52:17.433Z,2.53
2023-05-16T07:54:43.770Z,2.50
2023-05-16T07:57:10.945Z,2.53
2023-05-16T07:59:37.376Z,2.47
2023-05-16T08:02:03.911Z,2.30
2023-05-16T08:04:30.219Z,1.97
2023-05-16T08:06:56.506Z,1.93
2023-05-16T08:09:22.905Z,2.03
2023-05-16T08:11:49.312Z,2.07
2023-05-16T08:14:15.785Z,2.23
2023-05-16T08:16:42.280Z,1.77
2023-05-16T08:19:08.844Z,2.10
2023-05-16T08:21:35.224Z,2.20
2023-05-16T08:24:01.672Z,1.90
2023-05-16T08:26:28.034Z,1.60
2023-05-16T08:28:54.405Z,1.80
2023-05-16T08:31:21.203Z,1.80
2023-05-16T08:33:47.683Z,1.90
2023-05-16T08:36:15.766Z,1.83
2023-05-16T08:38:42.274Z,2.40
2023-05-16T08:41:08.558Z,2.10
2023-05-16T08:43:35.864Z,1.40
2023-05-16T08:46:02.264Z,1.70
2023-05-16T08:48:29.739Z,2.00
2023-05-16T08:50:56.295Z,2.17
2023-05-16T08:53:27.391Z,1.90
2023-05-16T08:55:54.273Z,1.80
2023-05-16T08:58:20.930Z,1.67
2023-05-16T09:00:47.699Z,1.80
2023-05-16T09:03:14.386Z,2.00
2023-05-16T09:05:41.189Z,1.60
2023-05-16T09:08:07.494Z,1.50
2023-05-16T09:10:33.968Z,1.40
2023-05-16T09:13:00.368Z,1.57
2023-05-16T09:15:31.355Z,1.37
2023-05-16T09:18:00.409Z,1.70
2023-05-16T09:20:27.076Z,1.70
2023-05-16T09:22:54.608Z,1.57
2023-05-16T09:25:29.472Z,1.50
2023-05-16T09:27:58.337Z,1.30
2023-05-16T09:30:28.419Z,1.50
2023-05-16T09:32:54.756Z,1.50
2023-05-16T09:35:35.058Z,1.40
2023-05-16T09:38:13.436Z,1.30
2023-05-16T09:40:40.914Z,1.73
2023-05-16T09:43:08.379Z,1.27
2023-05-16T09:45:35.586Z,1.30
2023-05-16T09:48:05.908Z,1.70
2023-05-16T09:50:32.864Z,1.87
2023-05-16T09:52:59.211Z,1.50
2023-05-16T09:55:25.793Z,1.67
2023-05-16T09:57:52.469Z,1.30
2023-05-16T10:00:19.114Z,1.33
2023-05-16T10:02:45.642Z,1.70
2023-05-16T10:05:12.063Z,1.20
2023-05-16T10:07:39.752Z,1.30
2023-05-16T10:10:07.427Z,1.17
2023-05-16T10:12:34.748Z,2.13
2023-05-16T10:15:01.630Z,2.10
2023-05-16T10:17:32.073Z,1.60
2023-05-16T10:20:01.644Z,1.37
2023-05-16T10:22:28.284Z,1.60
2023-05-16T10:25:01.307Z,1.87
2023-05-16T10:27:28.023Z,1.47
2023-05-16T10:29:55.265Z,1.67
2023-05-16T10:32:23.775Z,1.50
2023-05-16T10:34:51.000Z,1.93
2023-05-16T10:37:17.652Z,1.70
2023-05-16T10:39:44.275Z,1.33
2023-05-16T10:42:11.709Z,1.60
2023-05-16T10:44:39.142Z,1.50
2023-05-16T10:47:05.596Z,1.70
2023-05-16T10:49:32.104Z,1.67
2023-05-16T10:52:11.479Z,2.00
2023-05-16T10:54:39.653Z,2.20
2023-05-16T10:57:08.330Z,1.73
2023-05-16T10:59:41.786Z,3.50
2023-05-16T11:02:22.020Z,2.13
2023-05-16T11:04:49.407Z,1.60
2023-05-16T11:07:17.236Z,1.83
2023-05-16T11:09:44.519Z,1.80
2023-05-16T11:12:10.898Z,2.00
2023-05-16T11:14:45.094Z,2.00
2023-05-16T11:17:13.307Z,1.80
2023-05-16T11:19:42.671Z,1.80
2023-05-16T11:22:10.150Z,2.00
2023-05-16T11:24:38.010Z,1.77
2023-05-16T11:27:04.993Z,2.00
2023-05-16T11:29:32.643Z,1.63
2023-05-16T11:31:59.710Z,1.57
2023-05-16T11:34:26.387Z,1.60
2023-05-16T11:36:53.044Z,1.57
2023-05-16T11:39:20.111Z,1.60
2023-05-16T11:41:48.838Z,1.50
2023-05-16T11:44:15.490Z,2.93
2023-05-16T11:46:42.034Z,2.00
2023-05-16T11:49:11.561Z,1.40
2023-05-16T11:51:38.700Z,1.50
2023-05-16T11:54:05.221Z,1.77
2023-05-16T11:56:32.287Z,1.47
2023-05-16T11:59:01.656Z,1.50
2023-05-16T12:01:35.539Z,1.33
2023-05-16T12:04:02.236Z,1.70
2023-05-16T12:06:31.156Z,1.40
2023-05-16T12:08:57.478Z,1.50
2023-05-16T12:11:24.131Z,1.87
2023-05-16T12:13:50.556Z,1.50
2023-05-16T12:16:17.015Z,1.50
2023-05-16T12:18:44.306Z,1.70
2023-05-16T12:21:10.851Z,1.33
2023-05-16T12:23:37.275Z,1.47
2023-05-16T12:26:07.773Z,1.37
2023-05-16T12:28:39.373Z,1.40
2023-05-16T12:31:29.876Z,1.50
2023-05-16T12:33:59.024Z,2.00
2023-05-16T12:36:26.446Z,1.40
2023-05-16T12:38:53.347Z,1.20
2023-05-16T12:41:20.265Z,1.50
2023-05-16T12:43:46.720Z,1.90
2023-05-16T12:46:13.136Z,1.50
2023-05-16T12:48:43.264Z,1.53
2023-05-16T12:51:17.096Z,1.50
2023-05-16T12:53:54.357Z,1.60
2023-05-16T12:56:28.452Z,1.50
2023-05-16T12:58:55.278Z,1.73
2023-05-16T13:01:21.794Z,1.70
2023-05-16T13:03:48.248Z,1.60
2023-05-16T13:06:14.717Z,1.50
2023-05-16T13:08:41.262Z,2.10
2023-05-16T13:11:07.667Z,1.53
2023-05-16T13:13:36.496Z,1.80
2023-05-16T13:16:03.094Z,1.70
2023-05-16T13:18:29.408Z,1.60
2023-05-16T13:20:56.030Z,1.60
2023-05-16T13:23:22.396Z,1.53
2023-05-16T13:25:49.507Z,1.27
2023-05-16T13:28:16.238Z,1.20
2023-05-16T13:30:42.605Z,1.17
2023-05-16T13:33:08.963Z,1.33
2023-05-16T13:35:35.375Z,1.03
2023-05-16T13:38:01.761Z,1.20
2023-05-16T13:40:29.392Z,1.10
2023-05-16T13:42:56.651Z,1.10
2023-05-16T13:45:23.072Z,1.10
2023-05-16T13:47:49.439Z,1.30
2023-05-16T13:50:16.048Z,1.20
2023-05-16T13:52:42.443Z,2.63
2023-05-16T13:55:09.547Z,1.40
2023-05-16T13:57:36.565Z,1.10
2023-05-16T14:00:30.935Z,1.10
2023-05-16T14:02:55.110Z,1.40
2023-05-16T14:05:21.489Z,1.47
2023-05-16T14:07:47.825Z,1.40
2023-05-16T14:10:14.147Z,1.30
2023-05-16T14:12:40.653Z,1.30
2023-05-16T14:15:07.731Z,1.03
2023-05-16T14:17:34.145Z,1.60
2023-05-16T14:20:00.603Z,1.00
2023-05-16T14:22:28.449Z,1.17
2023-05-16T14:24:54.777Z,1.60
2023-05-16T14:27:21.155Z,1.50
2023-05-16T14:29:48.765Z,1.50
2023-05-16T14:32:15.163Z,1.30
2023-05-16T14:34:41.685Z,1.10
2023-05-16T14:37:10.160Z,1.20
2023-05-16T14:39:36.783Z,1.13
2023-05-16T14:42:03.173Z,0.80
2023-05-16T14:44:29.466Z,1.07
2023-05-16T14:46:55.750Z,1.30
2023-05-16T14:49:22.024Z,1.20
2023-05-16T14:51:50.370Z,1.20
2023-05-16T14:54:17.031Z,1.23
2023-05-16T14:56:43.453Z,1.27
2023-05-16T14:59:09.725Z,1.37
2023-05-16T15:01:36.242Z,1.20
2023-05-16T15:04:02.588Z,1.30
2023-05-16T15:06:29.239Z,1.27
2023-05-16T15:08:55.582Z,1.10
2023-05-16T15:11:22.000Z,1.17
2023-05-16T15:13:48.574Z,1.03
2023-05-16T15:16:14.951Z,1.20
2023-05-16T15:18:41.679Z,1.40
2023-05-16T15:21:08.907Z,1.13
2023-05-16T15:23:35.516Z,1.40
2023-05-16T15:26:01.966Z,1.60
2023-05-16T15:28:28.369Z,1.50
2023-05-16T15:30:54.717Z,2.10
2023-05-16T15:33:21.120Z,1.00
2023-05-16T15:35:48.387Z,1.30
2023-05-16T15:38:14.725Z,1.20
2023-05-16T15:40:41.107Z,1.58
2023-05-16T15:43:07.379Z,1.42
2023-05-16T15:45:33.946Z,1.40
2023-05-16T15:48:00.328Z,1.23
2023-05-16T15:50:26.772Z,1.10
2023-05-16T15:52:53.140Z,1.20
2023-05-16T15:55:19.543Z,1.40
2023-05-16T15:57:46.365Z,1.35
2023-05-16T16:00:13.002Z,1.45
2023-05-16T16:02:40.206Z,1.33
2023-05-16T16:05:06.974Z,1.40
2023-05-16T16:07:33.312Z,1.50
2023-05-16T16:09:59.711Z,2.58
2023-05-16T16:12:26.081Z,1.45
2023-05-16T16:14:52.583Z,1.60
2023-05-16T16:17:19.024Z,1.40
2023-05-16T16:19:45.507Z,1.10
2023-05-16T16:22:11.935Z,1.10
2023-05-16T16:24:38.346Z,1.60
2023-05-16T16:27:06.100Z,1.52
2023-05-16T16:29:32.498Z,1.73
2023-05-16T16:31:58.976Z,1.45
2023-05-16T16:34:25.470Z,1.70
2023-05-16T16:36:51.906Z,1.70
2023-05-16T16:39:20.640Z,1.90
2023-05-16T16:41:46.951Z,1.55
2023-05-16T16:44:13.500Z,1.55
2023-05-16T16:46:39.885Z,3.22
2023-05-16T16:49:06.494Z,3.60
2023-05-16T16:51:33.496Z,2.10
2023-05-16T16:53:59.846Z,1.73
2023-05-16T16:56:27.951Z,2.00
2023-05-16T16:58:54.322Z,1.90
2023-05-16T17:01:21.172Z,1.80
2023-05-16T17:03:47.566Z,2.13
2023-05-16T17:06:13.914Z,1.77
2023-05-16T17:08:40.269Z,1.80
2023-05-16T17:11:07.743Z,1.87
2023-05-16T17:13:37.258Z,1.80
2023-05-16T17:16:04.108Z,1.67
2023-05-16T17:18:32.365Z,1.40
2023-05-16T17:21:01.150Z,1.53
2023-05-16T17:23:27.706Z,1.50
2023-05-16T17:25:54.012Z,1.40
2023-05-16T17:28:20.397Z,1.73
2023-05-16T17:30:46.898Z,1.93
2023-05-16T17:33:13.295Z,1.80
2023-05-16T17:35:40.976Z,1.50
2023-05-16T17:38:07.381Z,1.80
2023-05-16T17:40:33.864Z,8.70
2023-05-16T17:43:00.208Z,5.00
2023-05-16T17:45:26.719Z,1.70
2023-05-16T17:47:53.216Z,1.90
2023-05-16T17:50:20.311Z,2.00
2023-05-16T17:52:47.193Z,1.80
2023-05-16T17:55:13.617Z,1.80
2023-05-16T17:57:39.919Z,1.63
2023-05-16T18:00:07.016Z,1.87
2023-05-16T18:02:34.877Z,1.90
2023-05-16T18:05:02.429Z,1.80
2023-05-16T18:07:29.109Z,1.90
2023-05-16T18:09:55.505Z,1.93
2023-05-16T18:12:22.036Z,1.90
2023-05-16T18:14:48.509Z,2.00
2023-05-16T18:17:14.875Z,1.80
2023-05-16T18:19:41.523Z,1.70
2023-05-16T18:22:08.731Z,1.80
2023-05-16T18:24:35.471Z,2.77
2023-05-16T18:27:02.904Z,2.20
2023-05-16T18:29:29.870Z,1.90
2023-05-16T18:31:57.083Z,2.00
2023-05-16T18:34:23.486Z,2.00
2023-05-16T18:36:49.838Z,1.77
2023-05-16T18:39:17.848Z,1.70
2023-05-16T18:41:46.651Z,1.83
2023-05-16T18:44:13.019Z,1.83
2023-05-16T18:46:39.386Z,1.67
2023-05-16T18:49:05.800Z,1.60
2023-05-16T18:51:32.202Z,1.60
2023-05-16T18:53:58.560Z,1.30
2023-05-16T18:56:24.969Z,1.30
2023-05-16T18:58:51.486Z,1.60
2023-05-16T19:01:21.974Z,1.50
2023-05-16T19:03:49.158Z,4.93
2023-05-16T19:06:15.713Z,2.80
2023-05-16T19:08:48.058Z,1.60
2023-05-16T19:11:14.768Z,1.43
2023-05-16T19:13:41.368Z,1.30
2023-05-16T19:16:08.525Z,1.27
2023-05-16T19:18:35.814Z,1.60
2023-05-16T19:21:02.355Z,1.57
2023-05-16T19:23:28.755Z,1.40
2023-05-16T19:25:55.040Z,1.57
2023-05-16T19:28:21.441Z,1.87
2023-05-16T19:30:47.782Z,2.30
2023-05-16T19:33:14.897Z,1.50
2023-05-16T19:35:41.354Z,1.50
2023-05-16T19:38:07.680Z,1.70
2023-05-16T19:40:34.426Z,1.63
2023-05-16T19:43:00.884Z,1.50
2023-05-16T19:45:27.469Z,1.80
2023-05-16T19:47:54.168Z,1.60
2023-05-16T19:50:21.574Z,1.43
2023-05-16T19:52:48.027Z,2.10
2023-05-16T19:55:14.364Z,1.70
2023-05-16T19:57:40.642Z,1.80
2023-05-16T20:00:07.385Z,1.50
2023-05-16T20:02:33.741Z,1.60
2023-05-16T20:05:00.295Z,1.50
2023-05-16T20:07:27.467Z,1.87
2023-05-16T20:09:53.830Z,1.80
2023-05-16T20:12:20.122Z,1.70
2023-05-16T20:14:46.717Z,1.50
2023-05-16T20:17:13.102Z,1.90
2023-05-16T20:19:43.776Z,1.80
2023-05-16T20:22:10.667Z,1.60
2023-05-16T20:24:37.498Z,1.50
2023-05-16T20:27:03.995Z,2.13
2023-05-16T20:29:32.437Z,1.70
2023-05-16T20:31:58.782Z,1.63
2023-05-16T20:34:25.144Z,2.10
2023-05-16T20:36:51.547Z,1.93
2023-05-16T20:39:17.996Z,2.13
2023-05-16T20:41:44.334Z,1.70
2023-05-16T20:44:10.795Z,1.90
2023-05-16T20:46:40.428Z,1.97
2023-05-16T20:49:06.782Z,2.00
2023-05-16T20:51:33.180Z,1.80
2023-05-16T20:53:59.577Z,1.93
2023-05-16T20:56:26.252Z,2.43
2023-05-16T20:58:52.538Z,2.13
2023-05-16T21:01:18.845Z,2.63
2023-05-16T21:03:45.367Z,2.00
2023-05-16T21:06:11.749Z,1.90
2023-05-16T21:08:38.150Z,1.90
2023-05-16T21:11:04.576Z,2.23
2023-05-16T21:13:31.206Z,2.10
2023-05-16T21:15:57.661Z,1.83
2023-05-16T21:18:24.082Z,1.50
2023-05-16T21:20:50.546Z,2.10
2023-05-16T21:23:16.845Z,1.83
2023-05-16T21:25:43.216Z,1.97
2023-05-16T21:28:09.506Z,1.90
2023-05-16T21:30:35.852Z,1.70
2023-05-16T21:33:02.274Z,1.70
2023-05-16T21:35:28.980Z,1.70
2023-05-16T21:37:55.668Z,1.73
2023-05-16T21:40:24.900Z,1.60
2023-05-16T21:42:54.747Z,1.67
2023-05-16T21:45:21.122Z,1.70
2023-05-16T21:47:47.552Z,1.50
2023-05-16T21:50:14.257Z,1.77
2023-05-16T21:52:40.696Z,1.80
2023-05-16T21:55:07.309Z,1.70
2023-05-16T21:57:33.676Z,1.90
2023-05-16T22:00:00.026Z,1.60
2023-05-16T22:02:26.414Z,1.70
2023-05-16T22:04:52.851Z,1.80
2023-05-16T22:07:19.494Z,1.73
2023-05-16T22:09:50.578Z,1.60
2023-05-16T22:12:17.094Z,1.77
2023-05-16T22:14:43.512Z,2.40
2023-05-16T22:17:09.920Z,2.07
2023-05-16T22:19:36.295Z,2.03
2023-05-16T22:22:02.617Z,1.67
2023-05-16T22:24:28.928Z,2.17
2023-05-16T22:26:55.421Z,1.90
2023-05-16T22:29:21.703Z,1.80
2023-05-16T22:31:47.970Z,1.90
2023-05-16T22:34:14.259Z,1.97
2023-05-16T22:36:40.585Z,2.10
2023-05-16T22:39:07.142Z,1.70
2023-05-16T22:41:33.721Z,1.60
2023-05-16T22:44:00.117Z,1.73
2023-05-16T22:46:26.429Z,2.00
2023-05-16T22:48:52.850Z,1.60
2023-05-16T22:51:19.258Z,2.00
2023-05-16T22:53:45.619Z,1.90
2023-05-16T22:56:11.996Z,1.97
2023-05-16T22:58:38.298Z,1.60
2023-05-16T23:01:04.629Z,1.70
2023-05-16T23:03:31.186Z,1.90
2023-05-16T23:05:57.521Z,1.83
2023-05-16T23:08:23.912Z,1.87
2023-05-16T23:10:50.384Z,2.00
2023-05-16T23:13:16.740Z,1.90
2023-05-16T23:15:43.052Z,1.93
2023-05-16T23:18:09.504Z,1.97
2023-05-16T23:20:35.977Z,2.07
2023-05-16T23:23:02.376Z,2.00
2023-05-16T23:25:29.098Z,2.00
2023-05-16T23:27:57.784Z,1.83
2023-05-16T23:30:24.571Z,1.90
2023-05-16T23:32:53.721Z,2.10
2023-05-16T23:35:20.132Z,2.17
2023-05-16T23:37:46.432Z,2.73
2023-05-16T23:40:12.939Z,2.40
2023-05-16T23:42:42.267Z,2.00
2023-05-16T23:45:09.125Z,2.10
2023-05-16T23:47:35.614Z,2.40
2023-05-16T23:50:02.308Z,2.47
2023-05-16T23:52:28.671Z,2.37
2023-05-16T23:54:55.153Z,2.60
2023-05-16T23:57:21.564Z,2.40
2023-05-16T23:59:48.061Z,2.63
